sensor_id;sensor_type;location;lat;lon;timestamp;temperature;humidity
54540;SHT30;40438;52.992;18.604;2023-02-15T00:00:53;19.05;63.21
54540;SHT30;40438;52.992;18.604;2023-02-15T00:03:18;19.06;62.99
54540;SHT30;40438;52.992;18.604;2023-02-15T00:05:44;19.22;62.39
54540;SHT30;40438;52.992;18.604;2023-02-15T00:08:10;19.43;61.45
54540;SHT30;40438;52.992;18.604;2023-02-15T00:10:35;19.36;61.62
54540;SHT30;40438;52.992;18.604;2023-02-15T00:13:01;19.69;60.62
54540;SHT30;40438;52.992;18.604;2023-02-15T00:15:29;19.77;60.01
54540;SHT30;40438;52.992;18.604;2023-02-15T00:17:56;19.85;59.75
54540;SHT30;40438;52.992;18.604;2023-02-15T00:20:22;19.81;59.91
54540;SHT30;40438;52.992;18.604;2023-02-15T00:22:48;19.70;60.20
54540;SHT30;40438;52.992;18.604;2023-02-15T00:25:14;19.71;59.89
54540;SHT30;40438;52.992;18.604;2023-02-15T00:27:40;19.67;60.11
54540;SHT30;40438;52.992;18.604;2023-02-15T00:30:06;19.87;59.47
54540;SHT30;40438;52.992;18.604;2023-02-15T00:32:34;19.73;59.70
54540;SHT30;40438;52.992;18.604;2023-02-15T00:35:01;19.85;59.25
54540;SHT30;40438;52.992;18.604;2023-02-15T00:37:26;19.84;59.39
54540;SHT30;40438;52.992;18.604;2023-02-15T00:39:52;19.77;59.31
54540;SHT30;40438;52.992;18.604;2023-02-15T00:42:18;19.74;59.34
54540;SHT30;40438;52.992;18.604;2023-02-15T00:44:44;19.74;59.51
54540;SHT30;40438;52.992;18.604;2023-02-15T00:47:10;19.63;59.73
54540;SHT30;40438;52.992;18.604;2023-02-15T00:49:37;19.73;59.37
54540;SHT30;40438;52.992;18.604;2023-02-15T00:52:03;19.71;59.30
54540;SHT30;40438;52.992;18.604;2023-02-15T00:54:29;19.57;59.77
54540;SHT30;40438;52.992;18.604;2023-02-15T00:56:55;19.38;60.48
54540;SHT30;40438;52.992;18.604;2023-02-15T00:59:21;19.16;61.10
54540;SHT30;40438;52.992;18.604;2023-02-15T01:01:47;19.14;61.18
54540;SHT30;40438;52.992;18.604;2023-02-15T01:04:13;19.33;60.54
54540;SHT30;40438;52.992;18.604;2023-02-15T01:06:40;19.50;59.82
54540;SHT30;40438;52.992;18.604;2023-02-15T01:09:06;19.47;59.75
54540;SHT30;40438;52.992;18.604;2023-02-15T01:11:31;19.38;60.25
54540;SHT30;40438;52.992;18.604;2023-02-15T01:13:57;19.46;59.96
54540;SHT30;40438;52.992;18.604;2023-02-15T01:16:25;19.18;60.84
54540;SHT30;40438;52.992;18.604;2023-02-15T01:18:51;19.18;61.24
54540;SHT30;40438;52.992;18.604;2023-02-15T01:21:19;19.08;61.06
54540;SHT30;40438;52.992;18.604;2023-02-15T01:23:47;19.25;60.67
54540;SHT30;40438;52.992;18.604;2023-02-15T01:26:13;19.12;60.88
54540;SHT30;40438;52.992;18.604;2023-02-15T01:28:39;18.96;61.47
54540;SHT30;40438;52.992;18.604;2023-02-15T01:31:06;18.88;61.86
54540;SHT30;40438;52.992;18.604;2023-02-15T01:33:33;18.83;62.15
54540;SHT30;40438;52.992;18.604;2023-02-15T01:35:59;18.74;62.15
54540;SHT30;40438;52.992;18.604;2023-02-15T01:38:24;18.84;61.96
54540;SHT30;40438;52.992;18.604;2023-02-15T01:40:52;18.75;62.13
54540;SHT30;40438;52.992;18.604;2023-02-15T01:43:18;18.89;61.97
54540;SHT30;40438;52.992;18.604;2023-02-15T01:45:47;18.85;61.98
54540;SHT30;40438;52.992;18.604;2023-02-15T01:48:19;18.99;61.25
54540;SHT30;40438;52.992;18.604;2023-02-15T01:50:48;18.78;62.56
54540;SHT30;40438;52.992;18.604;2023-02-15T01:53:18;18.78;61.96
54540;SHT30;40438;52.992;18.604;2023-02-15T01:55:47;18.84;61.92
54540;SHT30;40438;52.992;18.604;2023-02-15T01:58:16;18.87;61.66
54540;SHT30;40438;52.992;18.604;2023-02-15T02:00:43;18.88;61.53
54540;SHT30;40438;52.992;18.604;2023-02-15T02:03:09;18.80;61.79
54540;SHT30;40438;52.992;18.604;2023-02-15T02:05:35;18.65;62.14
54540;SHT30;40438;52.992;18.604;2023-02-15T02:08:03;18.57;62.55
54540;SHT30;40438;52.992;18.604;2023-02-15T02:10:30;18.67;62.53
54540;SHT30;40438;52.992;18.604;2023-02-15T02:12:59;18.53;62.61
54540;SHT30;40438;52.992;18.604;2023-02-15T02:15:32;18.63;62.30
54540;SHT30;40438;52.992;18.604;2023-02-15T02:18:07;18.49;62.92
54540;SHT30;40438;52.992;18.604;2023-02-15T02:24:03;18.64;62.55
54540;SHT30;40438;52.992;18.604;2023-02-15T02:26:59;18.53;62.84
54540;SHT30;40438;52.992;18.604;2023-02-15T02:35:23;18.65;62.31
54540;SHT30;40438;52.992;18.604;2023-02-15T02:38:00;18.63;62.55
54540;SHT30;40438;52.992;18.604;2023-02-15T02:40:34;18.52;62.82
54540;SHT30;40438;52.992;18.604;2023-02-15T02:43:09;18.47;63.02
54540;SHT30;40438;52.992;18.604;2023-02-15T02:45:41;18.53;62.34
54540;SHT30;40438;52.992;18.604;2023-02-15T02:48:13;18.54;62.17
54540;SHT30;40438;52.992;18.604;2023-02-15T02:50:42;18.56;62.24
54540;SHT30;40438;52.992;18.604;2023-02-15T02:53:09;18.46;62.77
54540;SHT30;40438;52.992;18.604;2023-02-15T02:55:38;18.54;62.16
54540;SHT30;40438;52.992;18.604;2023-02-15T02:58:08;18.59;62.06
54540;SHT30;40438;52.992;18.604;2023-02-15T03:00:39;18.52;62.44
54540;SHT30;40438;52.992;18.604;2023-02-15T03:03:10;18.56;62.33
54540;SHT30;40438;52.992;18.604;2023-02-15T03:05:43;18.53;62.42
54540;SHT30;40438;52.992;18.604;2023-02-15T03:08:12;18.46;62.58
54540;SHT30;40438;52.992;18.604;2023-02-15T03:10:40;18.36;62.79
54540;SHT30;40438;52.992;18.604;2023-02-15T03:13:08;18.49;62.40
54540;SHT30;40438;52.992;18.604;2023-02-15T03:15:36;18.52;62.22
54540;SHT30;40438;52.992;18.604;2023-02-15T03:18:03;18.52;62.20
54540;SHT30;40438;52.992;18.604;2023-02-15T03:20:31;18.42;62.27
54540;SHT30;40438;52.992;18.604;2023-02-15T03:23:04;18.42;62.50
54540;SHT30;40438;52.992;18.604;2023-02-15T03:25:34;18.36;62.45
54540;SHT30;40438;52.992;18.604;2023-02-15T03:28:03;18.42;62.59
54540;SHT30;40438;52.992;18.604;2023-02-15T03:30:31;18.36;62.42
54540;SHT30;40438;52.992;18.604;2023-02-15T03:32:59;18.36;62.51
54540;SHT30;40438;52.992;18.604;2023-02-15T03:35:31;18.46;62.55
54540;SHT30;40438;52.992;18.604;2023-02-15T03:38:00;18.52;62.14
54540;SHT30;40438;52.992;18.604;2023-02-15T03:40:32;18.52;62.17
54540;SHT30;40438;52.992;18.604;2023-02-15T03:43:12;18.47;62.09
54540;SHT30;40438;52.992;18.604;2023-02-15T03:45:40;18.43;62.24
54540;SHT30;40438;52.992;18.604;2023-02-15T03:48:07;18.44;62.18
54540;SHT30;40438;52.992;18.604;2023-02-15T03:50:36;18.50;62.22
54540;SHT30;40438;52.992;18.604;2023-02-15T03:53:06;18.43;62.24
54540;SHT30;40438;52.992;18.604;2023-02-15T03:55:35;18.42;62.13
54540;SHT30;40438;52.992;18.604;2023-02-15T03:58:01;18.47;62.10
54540;SHT30;40438;52.992;18.604;2023-02-15T04:00:27;18.37;62.36
54540;SHT30;40438;52.992;18.604;2023-02-15T04:03:12;18.26;62.33
54540;SHT30;40438;52.992;18.604;2023-02-15T04:05:44;18.85;60.44
54540;SHT30;40438;52.992;18.604;2023-02-15T04:08:11;19.19;59.86
54540;SHT30;40438;52.992;18.604;2023-02-15T04:10:39;19.45;59.37
54540;SHT30;40438;52.992;18.604;2023-02-15T04:13:04;19.64;58.56
54540;SHT30;40438;52.992;18.604;2023-02-15T04:15:30;19.77;58.12
54540;SHT30;40438;52.992;18.604;2023-02-15T04:17:56;19.87;57.77
54540;SHT30;40438;52.992;18.604;2023-02-15T04:20:22;19.91;57.74
54540;SHT30;40438;52.992;18.604;2023-02-15T04:22:47;19.96;57.54
54540;SHT30;40438;52.992;18.604;2023-02-15T04:25:13;20.03;57.54
54540;SHT30;40438;52.992;18.604;2023-02-15T04:27:43;20.10;57.08
54540;SHT30;40438;52.992;18.604;2023-02-15T04:30:10;20.17;56.92
54540;SHT30;40438;52.992;18.604;2023-02-15T04:32:37;20.18;56.79
54540;SHT30;40438;52.992;18.604;2023-02-15T04:35:04;20.24;56.95
54540;SHT30;40438;52.992;18.604;2023-02-15T04:37:30;20.26;56.66
54540;SHT30;40438;52.992;18.604;2023-02-15T04:39:55;20.26;56.65
54540;SHT30;40438;52.992;18.604;2023-02-15T04:42:21;20.35;56.64
54540;SHT30;40438;52.992;18.604;2023-02-15T04:44:48;20.36;56.32
54540;SHT30;40438;52.992;18.604;2023-02-15T04:47:14;20.33;56.40
54540;SHT30;40438;52.992;18.604;2023-02-15T04:49:40;20.32;56.15
54540;SHT30;40438;52.992;18.604;2023-02-15T04:52:06;20.32;56.18
54540;SHT30;40438;52.992;18.604;2023-02-15T04:54:31;20.31;55.90
54540;SHT30;40438;52.992;18.604;2023-02-15T04:56:57;20.32;56.05
54540;SHT30;40438;52.992;18.604;2023-02-15T04:59:23;20.33;55.97
54540;SHT30;40438;52.992;18.604;2023-02-15T05:01:50;20.49;55.72
54540;SHT30;40438;52.992;18.604;2023-02-15T05:04:16;20.66;55.75
54540;SHT30;40438;52.992;18.604;2023-02-15T05:06:42;20.64;55.79
54540;SHT30;40438;52.992;18.604;2023-02-15T05:09:07;20.60;56.10
54540;SHT30;40438;52.992;18.604;2023-02-15T05:11:33;20.48;56.14
54540;SHT30;40438;52.992;18.604;2023-02-15T05:13:59;20.52;56.25
54540;SHT30;40438;52.992;18.604;2023-02-15T05:16:25;20.52;56.16
54540;SHT30;40438;52.992;18.604;2023-02-15T05:18:52;20.56;55.92
54540;SHT30;40438;52.992;18.604;2023-02-15T05:21:18;20.62;55.95
54540;SHT30;40438;52.992;18.604;2023-02-15T05:23:43;20.63;55.93
54540;SHT30;40438;52.992;18.604;2023-02-15T05:26:10;20.63;55.85
54540;SHT30;40438;52.992;18.604;2023-02-15T05:28:37;20.64;55.76
54540;SHT30;40438;52.992;18.604;2023-02-15T05:31:05;20.56;55.79
54540;SHT30;40438;52.992;18.604;2023-02-15T05:33:32;20.57;55.77
54540;SHT30;40438;52.992;18.604;2023-02-15T05:36:01;20.55;55.60
54540;SHT30;40438;52.992;18.604;2023-02-15T05:38:27;20.60;55.65
54540;SHT30;40438;52.992;18.604;2023-02-15T05:40:53;20.59;55.49
54540;SHT30;40438;52.992;18.604;2023-02-15T05:43:18;20.57;55.34
54540;SHT30;40438;52.992;18.604;2023-02-15T05:45:45;20.63;55.33
54540;SHT30;40438;52.992;18.604;2023-02-15T05:48:10;20.68;55.34
54540;SHT30;40438;52.992;18.604;2023-02-15T05:50:36;20.72;55.28
54540;SHT30;40438;52.992;18.604;2023-02-15T05:53:03;20.70;55.05
54540;SHT30;40438;52.992;18.604;2023-02-15T05:55:29;20.75;55.17
54540;SHT30;40438;52.992;18.604;2023-02-15T05:57:55;20.76;55.15
54540;SHT30;40438;52.992;18.604;2023-02-15T06:00:21;20.83;55.24
54540;SHT30;40438;52.992;18.604;2023-02-15T06:02:47;20.82;55.13
54540;SHT30;40438;52.992;18.604;2023-02-15T06:05:12;20.83;55.25
54540;SHT30;40438;52.992;18.604;2023-02-15T06:07:38;20.83;55.44
54540;SHT30;40438;52.992;18.604;2023-02-15T06:10:06;20.84;55.24
54540;SHT30;40438;52.992;18.604;2023-02-15T06:12:32;20.83;55.32
54540;SHT30;40438;52.992;18.604;2023-02-15T06:14:58;20.90;55.24
54540;SHT30;40438;52.992;18.604;2023-02-15T06:17:24;20.93;55.31
54540;SHT30;40438;52.992;18.604;2023-02-15T06:19:49;20.82;55.44
54540;SHT30;40438;52.992;18.604;2023-02-15T06:22:15;20.80;55.62
54540;SHT30;40438;52.992;18.604;2023-02-15T06:24:41;20.75;55.44
54540;SHT30;40438;52.992;18.604;2023-02-15T06:27:08;20.79;55.45
54540;SHT30;40438;52.992;18.604;2023-02-15T06:29:34;20.75;55.24
54540;SHT30;40438;52.992;18.604;2023-02-15T06:32:00;20.70;55.26
54540;SHT30;40438;52.992;18.604;2023-02-15T06:34:26;20.73;55.02
54540;SHT30;40438;52.992;18.604;2023-02-15T06:36:51;20.64;55.08
54540;SHT30;40438;52.992;18.604;2023-02-15T06:39:17;20.70;54.98
54540;SHT30;40438;52.992;18.604;2023-02-15T06:41:43;20.72;55.03
54540;SHT30;40438;52.992;18.604;2023-02-15T06:44:10;20.64;54.87
54540;SHT30;40438;52.992;18.604;2023-02-15T06:46:36;20.64;54.94
54540;SHT30;40438;52.992;18.604;2023-02-15T06:49:02;20.66;54.82
54540;SHT30;40438;52.992;18.604;2023-02-15T06:51:27;20.66;54.87
54540;SHT30;40438;52.992;18.604;2023-02-15T06:53:53;20.64;54.62
54540;SHT30;40438;52.992;18.604;2023-02-15T06:56:19;20.62;54.72
54540;SHT30;40438;52.992;18.604;2023-02-15T06:58:45;20.66;54.61
54540;SHT30;40438;52.992;18.604;2023-02-15T07:01:12;20.69;54.66
54540;SHT30;40438;52.992;18.604;2023-02-15T07:03:38;20.66;54.50
54540;SHT30;40438;52.992;18.604;2023-02-15T07:06:04;20.62;54.43
54540;SHT30;40438;52.992;18.604;2023-02-15T07:08:30;20.69;54.39
54540;SHT30;40438;52.992;18.604;2023-02-15T07:10:56;20.70;54.32
54540;SHT30;40438;52.992;18.604;2023-02-15T07:13:21;20.72;54.24
54540;SHT30;40438;52.992;18.604;2023-02-15T07:15:48;20.70;54.23
54540;SHT30;40438;52.992;18.604;2023-02-15T07:18:15;20.68;54.20
54540;SHT30;40438;52.992;18.604;2023-02-15T07:20:41;20.68;54.21
54540;SHT30;40438;52.992;18.604;2023-02-15T07:23:06;20.69;53.95
54540;SHT30;40438;52.992;18.604;2023-02-15T07:25:33;20.72;53.95
54540;SHT30;40438;52.992;18.604;2023-02-15T07:27:59;20.66;53.78
54540;SHT30;40438;52.992;18.604;2023-02-15T07:30:26;20.72;53.71
54540;SHT30;40438;52.992;18.604;2023-02-15T07:32:55;20.68;53.54
54540;SHT30;40438;52.992;18.604;2023-02-15T07:35:22;20.73;53.39
54540;SHT30;40438;52.992;18.604;2023-02-15T07:37:47;20.75;53.43
54540;SHT30;40438;52.992;18.604;2023-02-15T07:40:13;20.75;53.47
54540;SHT30;40438;52.992;18.604;2023-02-15T07:42:39;20.79;53.44
54540;SHT30;40438;52.992;18.604;2023-02-15T07:45:05;20.79;53.20
54540;SHT30;40438;52.992;18.604;2023-02-15T07:47:31;20.77;53.29
54540;SHT30;40438;52.992;18.604;2023-02-15T07:49:57;20.77;53.25
54540;SHT30;40438;52.992;18.604;2023-02-15T07:52:26;20.77;53.28
54540;SHT30;40438;52.992;18.604;2023-02-15T07:54:52;20.79;53.19
54540;SHT30;40438;52.992;18.604;2023-02-15T07:57:18;20.80;53.26
54540;SHT30;40438;52.992;18.604;2023-02-15T07:59:43;20.82;53.16
54540;SHT30;40438;52.992;18.604;2023-02-15T08:02:10;20.68;53.17
54540;SHT30;40438;52.992;18.604;2023-02-15T08:04:36;20.82;53.17
54540;SHT30;40438;52.992;18.604;2023-02-15T08:07:01;20.87;52.90
54540;SHT30;40438;52.992;18.604;2023-02-15T08:09:29;20.90;52.76
54540;SHT30;40438;52.992;18.604;2023-02-15T08:11:54;20.93;52.59
54540;SHT30;40438;52.992;18.604;2023-02-15T08:14:21;20.93;52.54
54540;SHT30;40438;52.992;18.604;2023-02-15T08:16:48;20.93;52.50
54540;SHT30;40438;52.992;18.604;2023-02-15T08:19:16;20.97;52.54
54540;SHT30;40438;52.992;18.604;2023-02-15T08:21:44;20.97;52.41
54540;SHT30;40438;52.992;18.604;2023-02-15T08:24:11;20.97;52.22
54540;SHT30;40438;52.992;18.604;2023-02-15T08:26:39;20.94;52.22
54540;SHT30;40438;52.992;18.604;2023-02-15T08:29:06;20.94;52.23
54540;SHT30;40438;52.992;18.604;2023-02-15T08:31:33;20.91;52.17
54540;SHT30;40438;52.992;18.604;2023-02-15T08:33:59;20.99;52.26
54540;SHT30;40438;52.992;18.604;2023-02-15T08:36:27;20.97;52.09
54540;SHT30;40438;52.992;18.604;2023-02-15T08:38:53;20.89;51.92
54540;SHT30;40438;52.992;18.604;2023-02-15T08:41:23;20.94;52.04
54540;SHT30;40438;52.992;18.604;2023-02-15T08:43:53;20.94;51.83
54540;SHT30;40438;52.992;18.604;2023-02-15T08:46:19;20.96;51.80
54540;SHT30;40438;52.992;18.604;2023-02-15T08:48:46;20.94;51.67
54540;SHT30;40438;52.992;18.604;2023-02-15T08:51:13;20.93;51.87
54540;SHT30;40438;52.992;18.604;2023-02-15T08:53:40;20.97;51.63
54540;SHT30;40438;52.992;18.604;2023-02-15T08:56:07;21.01;51.45
54540;SHT30;40438;52.992;18.604;2023-02-15T08:58:33;20.99;51.55
54540;SHT30;40438;52.992;18.604;2023-02-15T09:01:01;20.97;51.54
54540;SHT30;40438;52.992;18.604;2023-02-15T09:03:27;20.97;51.60
54540;SHT30;40438;52.992;18.604;2023-02-15T09:05:57;21.54;50.66
54540;SHT30;40438;52.992;18.604;2023-02-15T09:08:23;21.76;50.08
54540;SHT30;40438;52.992;18.604;2023-02-15T09:10:48;21.83;50.19
54540;SHT30;40438;52.992;18.604;2023-02-15T09:13:14;21.83;50.37
54540;SHT30;40438;52.992;18.604;2023-02-15T09:15:40;21.80;50.49
54540;SHT30;40438;52.992;18.604;2023-02-15T09:18:07;21.82;50.25
54540;SHT30;40438;52.992;18.604;2023-02-15T09:20:35;21.83;50.17
54540;SHT30;40438;52.992;18.604;2023-02-15T09:23:01;21.85;50.09
54540;SHT30;40438;52.992;18.604;2023-02-15T09:25:27;21.79;49.99
54540;SHT30;40438;52.992;18.604;2023-02-15T09:27:53;21.80;49.95
54540;SHT30;40438;52.992;18.604;2023-02-15T09:30:18;21.78;49.83
54540;SHT30;40438;52.992;18.604;2023-02-15T09:32:44;21.78;49.76
54540;SHT30;40438;52.992;18.604;2023-02-15T09:35:12;21.76;49.74
54540;SHT30;40438;52.992;18.604;2023-02-15T09:37:37;21.78;49.73
54540;SHT30;40438;52.992;18.604;2023-02-15T09:40:04;21.80;49.56
54540;SHT30;40438;52.992;18.604;2023-02-15T09:42:47;21.88;49.51
54540;SHT30;40438;52.992;18.604;2023-02-15T09:45:25;21.88;49.30
54540;SHT30;40438;52.992;18.604;2023-02-15T09:48:07;21.93;49.18
54540;SHT30;40438;52.992;18.604;2023-02-15T09:50:47;21.90;49.34
54540;SHT30;40438;52.992;18.604;2023-02-15T09:53:33;21.96;49.36
54540;SHT30;40438;52.992;18.604;2023-02-15T09:56:06;21.92;49.42
54540;SHT30;40438;52.992;18.604;2023-02-15T09:58:42;21.89;49.53
54540;SHT30;40438;52.992;18.604;2023-02-15T10:01:18;21.89;49.37
54540;SHT30;40438;52.992;18.604;2023-02-15T10:04:00;21.88;49.44
54540;SHT30;40438;52.992;18.604;2023-02-15T10:06:36;21.88;49.54
54540;SHT30;40438;52.992;18.604;2023-02-15T10:09:17;21.86;50.01
54540;SHT30;40438;52.992;18.604;2023-02-15T10:12:08;21.65;51.09
54540;SHT30;40438;52.992;18.604;2023-02-15T10:14:56;21.17;51.98
54540;SHT30;40438;52.992;18.604;2023-02-15T10:17:39;21.00;52.65
54540;SHT30;40438;52.992;18.604;2023-02-15T10:20:17;20.94;53.37
54540;SHT30;40438;52.992;18.604;2023-02-15T10:23:03;20.86;53.43
54540;SHT30;40438;52.992;18.604;2023-02-15T10:25:39;20.83;53.99
54540;SHT30;40438;52.992;18.604;2023-02-15T10:28:12;20.86;53.84
54540;SHT30;40438;52.992;18.604;2023-02-15T10:30:46;20.70;53.82
54540;SHT30;40438;52.992;18.604;2023-02-15T10:33:20;20.86;54.11
54540;SHT30;40438;52.992;18.604;2023-02-15T10:35:53;20.72;53.79
54540;SHT30;40438;52.992;18.604;2023-02-15T10:38:32;20.69;54.04
54540;SHT30;40438;52.992;18.604;2023-02-15T10:41:09;20.64;54.40
54540;SHT30;40438;52.992;18.604;2023-02-15T10:43:45;20.52;54.47
54540;SHT30;40438;52.992;18.604;2023-02-15T10:46:24;20.41;54.69
54540;SHT30;40438;52.992;18.604;2023-02-15T10:49:23;20.41;54.59
54540;SHT30;40438;52.992;18.604;2023-02-15T10:52:01;20.51;54.46
54540;SHT30;40438;52.992;18.604;2023-02-15T10:54:37;20.56;53.93
54540;SHT30;40438;52.992;18.604;2023-02-15T10:57:15;20.57;54.47
54540;SHT30;40438;52.992;18.604;2023-02-15T10:59:54;20.43;54.60
54540;SHT30;40438;52.992;18.604;2023-02-15T11:02:26;20.45;55.34
54540;SHT30;40438;52.992;18.604;2023-02-15T11:05:05;20.35;55.19
54540;SHT30;40438;52.992;18.604;2023-02-15T11:07:38;20.36;55.07
54540;SHT30;40438;52.992;18.604;2023-02-15T11:10:24;20.28;54.92
54540;SHT30;40438;52.992;18.604;2023-02-15T11:12:52;20.29;55.04
54540;SHT30;40438;52.992;18.604;2023-02-15T11:15:25;20.26;54.96
54540;SHT30;40438;52.992;18.604;2023-02-15T11:17:52;20.22;54.65
54540;SHT30;40438;52.992;18.604;2023-02-15T11:20:24;20.21;54.65
54540;SHT30;40438;52.992;18.604;2023-02-15T11:22:51;20.22;54.91
54540;SHT30;40438;52.992;18.604;2023-02-15T11:25:24;20.21;54.69
54540;SHT30;40438;52.992;18.604;2023-02-15T11:27:51;20.11;53.98
54540;SHT30;40438;52.992;18.604;2023-02-15T11:30:20;20.05;54.43
54540;SHT30;40438;52.992;18.604;2023-02-15T11:32:47;20.00;54.49
54540;SHT30;40438;52.992;18.604;2023-02-15T11:35:20;19.96;54.74
54540;SHT30;40438;52.992;18.604;2023-02-15T11:37:50;19.94;54.26
54540;SHT30;40438;52.992;18.604;2023-02-15T11:40:22;19.85;53.63
54540;SHT30;40438;52.992;18.604;2023-02-15T11:42:50;19.96;54.01
54540;SHT30;40438;52.992;18.604;2023-02-15T11:45:22;19.94;53.99
54540;SHT30;40438;52.992;18.604;2023-02-15T11:47:51;19.78;54.66
54540;SHT30;40438;52.992;18.604;2023-02-15T11:50:21;19.78;55.58
54540;SHT30;40438;52.992;18.604;2023-02-15T11:52:47;19.73;55.65
54540;SHT30;40438;52.992;18.604;2023-02-15T11:55:17;19.67;55.64
54540;SHT30;40438;52.992;18.604;2023-02-15T11:57:50;19.63;56.37
54540;SHT30;40438;52.992;18.604;2023-02-15T12:00:27;19.67;56.98
54540;SHT30;40438;52.992;18.604;2023-02-15T12:02:57;19.59;57.06
54540;SHT30;40438;52.992;18.604;2023-02-15T12:05:24;19.84;56.76
54540;SHT30;40438;52.992;18.604;2023-02-15T12:07:54;20.08;56.34
54540;SHT30;40438;52.992;18.604;2023-02-15T12:10:24;20.11;57.15
54540;SHT30;40438;52.992;18.604;2023-02-15T12:13:09;20.01;56.25
54540;SHT30;40438;52.992;18.604;2023-02-15T12:15:35;20.00;56.95
54540;SHT30;40438;52.992;18.604;2023-02-15T12:18:01;19.96;56.59
54540;SHT30;40438;52.992;18.604;2023-02-15T12:20:31;20.07;56.74
54540;SHT30;40438;52.992;18.604;2023-02-15T12:23:00;20.01;57.43
54540;SHT30;40438;52.992;18.604;2023-02-15T12:25:29;20.00;56.81
54540;SHT30;40438;52.992;18.604;2023-02-15T12:28:00;20.05;56.88
54540;SHT30;40438;52.992;18.604;2023-02-15T12:30:30;20.01;57.05
54540;SHT30;40438;52.992;18.604;2023-02-15T12:32:59;20.04;56.98
54540;SHT30;40438;52.992;18.604;2023-02-15T12:35:28;20.11;57.28
54540;SHT30;40438;52.992;18.604;2023-02-15T12:37:56;20.15;57.76
54540;SHT30;40438;52.992;18.604;2023-02-15T12:40:24;20.08;58.64
54540;SHT30;40438;52.992;18.604;2023-02-15T12:42:50;20.12;58.73
54540;SHT30;40438;52.992;18.604;2023-02-15T12:45:26;20.00;58.21
54540;SHT30;40438;52.992;18.604;2023-02-15T12:48:15;20.04;58.52
54540;SHT30;40438;52.992;18.604;2023-02-15T12:50:42;20.15;59.41
54540;SHT30;40438;52.992;18.604;2023-02-15T12:53:13;20.18;59.30
54540;SHT30;40438;52.992;18.604;2023-02-15T12:55:50;20.11;58.92
54540;SHT30;40438;52.992;18.604;2023-02-15T12:58:17;20.04;58.53
54540;SHT30;40438;52.992;18.604;2023-02-15T13:00:45;20.03;58.79
54540;SHT30;40438;52.992;18.604;2023-02-15T13:03:17;20.12;59.04
54540;SHT30;40438;52.992;18.604;2023-02-15T13:05:44;20.12;59.21
54540;SHT30;40438;52.992;18.604;2023-02-15T13:08:14;20.14;59.25
54540;SHT30;40438;52.992;18.604;2023-02-15T13:10:51;20.05;59.48
54540;SHT30;40438;52.992;18.604;2023-02-15T13:13:21;20.00;58.99
54540;SHT30;40438;52.992;18.604;2023-02-15T13:15:51;19.98;59.18
54540;SHT30;40438;52.992;18.604;2023-02-15T13:18:26;20.08;59.24
54540;SHT30;40438;52.992;18.604;2023-02-15T13:20:54;20.18;60.03
54540;SHT30;40438;52.992;18.604;2023-02-15T13:23:26;20.20;61.01
54540;SHT30;40438;52.992;18.604;2023-02-15T13:25:54;20.04;60.27
54540;SHT30;40438;52.992;18.604;2023-02-15T13:28:24;19.97;59.88
54540;SHT30;40438;52.992;18.604;2023-02-15T13:30:54;20.01;59.93
54540;SHT30;40438;52.992;18.604;2023-02-15T13:33:24;20.14;60.43
54540;SHT30;40438;52.992;18.604;2023-02-15T13:36:04;20.25;60.49
54540;SHT30;40438;52.992;18.604;2023-02-15T13:38:46;20.05;60.16
54540;SHT30;40438;52.992;18.604;2023-02-15T13:41:14;20.01;59.90
54540;SHT30;40438;52.992;18.604;2023-02-15T13:43:50;19.98;59.75
54540;SHT30;40438;52.992;18.604;2023-02-15T13:46:27;19.91;59.84
54540;SHT30;40438;52.992;18.604;2023-02-15T13:49:10;20.21;60.84
54540;SHT30;40438;52.992;18.604;2023-02-15T13:51:43;20.31;60.79
54540;SHT30;40438;52.992;18.604;2023-02-15T13:57:31;20.18;60.12
54540;SHT30;40438;52.992;18.604;2023-02-15T14:00:13;20.00;59.96
54540;SHT30;40438;52.992;18.604;2023-02-15T14:03:21;20.01;60.27
54540;SHT30;40438;52.992;18.604;2023-02-15T14:06:08;20.18;61.02
54540;SHT30;40438;52.992;18.604;2023-02-15T14:08:46;20.22;59.81
54540;SHT30;40438;52.992;18.604;2023-02-15T14:11:21;20.18;60.48
54540;SHT30;40438;52.992;18.604;2023-02-15T14:14:21;20.24;60.17
54540;SHT30;40438;52.992;18.604;2023-02-15T14:16:55;20.21;59.65
54540;SHT30;40438;52.992;18.604;2023-02-15T14:19:35;20.21;59.85
54540;SHT30;40438;52.992;18.604;2023-02-15T14:22:11;20.18;59.72
54540;SHT30;40438;52.992;18.604;2023-02-15T14:24:45;20.31;59.80
54540;SHT30;40438;52.992;18.604;2023-02-15T14:27:23;20.24;60.04
54540;SHT30;40438;52.992;18.604;2023-02-15T14:29:53;20.26;60.79
54540;SHT30;40438;52.992;18.604;2023-02-15T14:32:27;20.31;60.48
54540;SHT30;40438;52.992;18.604;2023-02-15T14:34:57;20.52;60.87
54540;SHT30;40438;52.992;18.604;2023-02-15T14:37:33;20.36;60.37
54540;SHT30;40438;52.992;18.604;2023-02-15T14:40:05;20.38;59.76
54540;SHT30;40438;52.992;18.604;2023-02-15T14:42:40;20.55;59.57
54540;SHT30;40438;52.992;18.604;2023-02-15T14:45:17;20.66;59.70
54540;SHT30;40438;52.992;18.604;2023-02-15T14:47:48;20.60;58.99
54540;SHT30;40438;52.992;18.604;2023-02-15T14:50:38;20.52;60.48
54540;SHT30;40438;52.992;18.604;2023-02-15T14:53:36;20.64;60.38
54540;SHT30;40438;52.992;18.604;2023-02-15T14:56:20;20.76;60.82
54540;SHT30;40438;52.992;18.604;2023-02-15T14:59:17;20.68;60.91
54540;SHT30;40438;52.992;18.604;2023-02-15T15:01:52;20.63;60.86
54540;SHT30;40438;52.992;18.604;2023-02-15T15:04:27;20.62;61.23
54540;SHT30;40438;52.992;18.604;2023-02-15T15:07:03;20.38;61.39
54540;SHT30;40438;52.992;18.604;2023-02-15T15:09:30;20.41;61.79
54540;SHT30;40438;52.992;18.604;2023-02-15T15:12:14;20.46;61.05
54540;SHT30;40438;52.992;18.604;2023-02-15T15:14:42;20.42;61.38
54540;SHT30;40438;52.992;18.604;2023-02-15T15:17:13;20.60;61.78
54540;SHT30;40438;52.992;18.604;2023-02-15T15:20:03;20.51;62.02
54540;SHT30;40438;52.992;18.604;2023-02-15T15:22:31;20.31;62.40
54540;SHT30;40438;52.992;18.604;2023-02-15T15:24:58;20.29;62.29
54540;SHT30;40438;52.992;18.604;2023-02-15T15:27:54;20.20;62.12
54540;SHT30;40438;52.992;18.604;2023-02-15T15:36:37;20.43;62.22
54540;SHT30;40438;52.992;18.604;2023-02-15T15:39:20;20.60;62.17
54540;SHT30;40438;52.992;18.604;2023-02-15T15:41:53;20.43;62.51
54540;SHT30;40438;52.992;18.604;2023-02-15T15:44:52;20.55;62.79
54540;SHT30;40438;52.992;18.604;2023-02-15T15:47:32;20.57;63.11
54540;SHT30;40438;52.992;18.604;2023-02-15T15:50:00;20.52;62.94
54540;SHT30;40438;52.992;18.604;2023-02-15T15:52:27;20.75;62.71